createdAt,value
2017-05-03T00:01:41.726Z,89.32
2017-05-03T00:04:08.026Z,90.71
2017-05-03T00:06:34.568Z,91.25
2017-05-03T00:09:00.884Z,89.84
2017-05-03T00:11:27.220Z,87.52
2017-05-03T00:13:53.540Z,89.53
2017-05-03T00:16:19.862Z,90.68
2017-05-03T00:18:46.173Z,89.47
2017-05-03T00:21:12.487Z,89.02
2017-05-03T00:23:38.796Z,88.94
2017-05-03T00:26:05.126Z,88.74
2017-05-03T00:28:31.457Z,89.55
2017-05-03T00:30:57.821Z,88.96
2017-05-03T00:33:24.203Z,89.82
2017-05-03T00:35:50.498Z,88.86
2017-05-03T00:38:16.816Z,89.99
2017-05-03T00:40:43.126Z,91.21
2017-05-03T00:43:09.458Z,90.18
2017-05-03T00:45:35.771Z,90.82
2017-05-03T00:48:02.090Z,90.52
2017-05-03T00:50:28.426Z,89.92
2017-05-03T00:52:54.734Z,90.37
2017-05-03T00:55:21.051Z,91.99
2017-05-03T00:57:47.349Z,91.69
2017-05-03T01:00:13.705Z,91.18
2017-05-03T01:02:40.024Z,91.20
2017-05-03T01:05:06.344Z,91.94
2017-05-03T01:07:32.689Z,91.57
2017-05-03T01:09:59.015Z,91.12
2017-05-03T01:12:25.356Z,90.58
2017-05-03T01:14:51.701Z,91.04
2017-05-03T01:17:18.096Z,90.92
2017-05-03T01:19:44.450Z,90.45
2017-05-03T01:22:11.066Z,90.72
2017-05-03T01:24:37.424Z,91.35
2017-05-03T01:27:03.777Z,91.55
2017-05-03T01:29:30.115Z,90.46
2017-05-03T01:31:56.540Z,90.37
2017-05-03T01:34:22.918Z,91.00
2017-05-03T01:36:49.240Z,90.02
2017-05-03T01:39:15.575Z,89.52
2017-05-03T01:41:42.060Z,89.89
2017-05-03T01:44:08.417Z,90.68
2017-05-03T01:46:34.756Z,90.13
2017-05-03T01:49:01.100Z,88.76
2017-05-03T01:51:27.547Z,89.79
2017-05-03T01:53:53.855Z,89.47
2017-05-03T01:56:20.170Z,90.95
2017-05-03T01:58:46.496Z,89.40
2017-05-03T02:01:12.966Z,91.68
2017-05-03T02:03:39.277Z,92.20
2017-05-03T02:06:05.721Z,90.20
2017-05-03T02:08:32.036Z,90.04
2017-05-03T02:10:58.381Z,90.10
2017-05-03T02:13:24.734Z,92.22
2017-05-03T02:15:51.063Z,89.96
2017-05-03T02:18:17.381Z,90.74
2017-05-03T02:20:43.677Z,90.60
2017-05-03T02:23:09.997Z,91.22
2017-05-03T02:25:36.313Z,90.94
2017-05-03T02:28:02.764Z,91.10
2017-05-03T02:30:29.062Z,90.50
2017-05-03T02:32:55.425Z,89.83
2017-05-03T02:35:21.834Z,88.61
2017-05-03T02:37:48.506Z,91.07
2017-05-03T02:40:14.825Z,91.71
2017-05-03T02:42:41.144Z,91.52
2017-05-03T02:45:07.463Z,90.82
2017-05-03T02:47:33.956Z,91.53
2017-05-03T02:50:00.270Z,90.87
2017-05-03T02:52:26.576Z,89.53
2017-05-03T02:54:52.900Z,90.38
2017-05-03T02:57:19.372Z,90.03
2017-05-03T02:59:45.682Z,91.83
2017-05-03T03:02:12.021Z,92.37
2017-05-03T03:04:38.354Z,91.34
2017-05-03T03:07:04.864Z,91.91
2017-05-03T03:09:31.175Z,91.43
2017-05-03T03:11:57.831Z,91.61
2017-05-03T03:14:24.146Z,90.91
2017-05-03T03:16:50.510Z,92.92
2017-05-03T03:19:16.809Z,92.09
2017-05-03T03:21:43.122Z,92.84
2017-05-03T03:24:09.449Z,92.26
2017-05-03T03:26:35.758Z,90.56
2017-05-03T03:29:02.256Z,89.12
2017-05-03T03:31:28.579Z,86.32
2017-05-03T03:33:54.947Z,85.44
2017-05-03T03:36:21.261Z,85.42
2017-05-03T03:38:47.601Z,85.32
2017-05-03T03:41:13.904Z,87.52
2017-05-03T03:43:40.221Z,90.53
2017-05-03T03:46:06.548Z,92.21
2017-05-03T03:48:32.885Z,91.87
2017-05-03T03:50:59.194Z,89.49
2017-05-03T03:53:25.518Z,90.25
2017-05-03T03:55:52.015Z,87.12
2017-05-03T03:58:18.452Z,91.41
2017-05-03T04:00:44.787Z,91.34
2017-05-03T04:03:11.167Z,89.79
2017-05-03T04:05:37.487Z,88.18
2017-05-03T04:08:03.841Z,89.50
2017-05-03T04:13:05.376Z,87.71
2017-05-03T04:15:31.690Z,87.62
2017-05-03T04:17:57.994Z,86.40
2017-05-03T04:20:24.313Z,90.71
2017-05-03T04:22:50.646Z,87.84
2017-05-03T04:25:16.981Z,86.20
2017-05-03T04:27:43.307Z,85.79
2017-05-03T04:30:09.761Z,85.38
2017-05-03T04:32:36.120Z,85.99
2017-05-03T04:35:02.427Z,88.77
2017-05-03T04:37:28.772Z,85.96
2017-05-03T04:39:55.084Z,85.81
2017-05-03T04:42:21.478Z,85.79
2017-05-03T04:44:47.805Z,87.53
2017-05-03T04:47:14.263Z,86.98
2017-05-03T04:49:40.601Z,88.68
2017-05-03T04:52:06.957Z,85.81
2017-05-03T04:54:33.268Z,86.00
2017-05-03T04:56:59.772Z,87.85
2017-05-03T04:59:26.086Z,86.71
2017-05-03T05:01:52.433Z,85.56
2017-05-03T05:04:18.724Z,85.82
2017-05-03T05:06:45.076Z,87.08
2017-05-03T05:09:11.402Z,86.90
2017-05-03T05:11:37.724Z,87.13
2017-05-03T05:14:04.066Z,86.84
2017-05-03T05:16:30.394Z,88.82
2017-05-03T05:18:56.733Z,85.45
2017-05-03T05:21:23.023Z,88.88
2017-05-03T05:23:49.322Z,85.63
2017-05-03T05:26:15.697Z,84.79
2017-05-03T05:28:42.016Z,86.02
2017-05-03T05:31:08.340Z,84.69
2017-05-03T05:33:34.684Z,86.11
2017-05-03T05:36:01.011Z,85.98
2017-05-03T05:38:27.483Z,85.70
2017-05-03T05:40:53.813Z,85.86
2017-05-03T05:43:20.157Z,85.15
2017-05-03T05:45:46.470Z,84.37
2017-05-03T05:48:12.805Z,84.62
2017-05-03T05:50:39.126Z,83.79
2017-05-03T05:53:05.448Z,83.59
2017-05-03T05:55:31.783Z,85.12
2017-05-03T05:57:58.490Z,85.00
2017-05-03T06:00:24.815Z,84.67
2017-05-03T06:02:51.437Z,85.33
2017-05-03T06:05:17.765Z,84.19
2017-05-03T06:07:44.080Z,84.96
2017-05-03T06:10:10.397Z,86.45
2017-05-03T06:12:37.120Z,85.09
2017-05-03T06:15:03.457Z,83.81
2017-05-03T06:17:29.772Z,84.91
2017-05-03T06:19:56.091Z,82.92
2017-05-03T06:22:22.443Z,83.85
2017-05-03T06:24:48.788Z,86.96
2017-05-03T06:27:15.124Z,82.80
2017-05-03T06:29:41.450Z,84.48
2017-05-03T06:32:07.775Z,84.34
2017-05-03T06:34:34.101Z,82.65
2017-05-03T06:37:00.445Z,86.23
2017-05-03T06:39:26.853Z,84.40
2017-05-03T06:41:53.270Z,85.60
2017-05-03T06:44:19.618Z,87.30
2017-05-03T06:46:45.945Z,89.52
2017-05-03T06:49:12.272Z,84.45
2017-05-03T06:51:38.617Z,84.50
2017-05-03T06:54:04.932Z,82.79
2017-05-03T06:56:31.258Z,82.66
2017-05-03T06:58:57.580Z,82.09
2017-05-03T07:01:23.927Z,83.33
2017-05-03T07:03:50.258Z,81.60
2017-05-03T07:06:16.571Z,81.31
2017-05-03T07:08:42.904Z,81.68
2017-05-03T07:11:09.248Z,80.89
2017-05-03T07:13:35.553Z,81.53
2017-05-03T07:16:02.382Z,82.73
2017-05-03T07:18:28.694Z,81.60
2017-05-03T07:20:55.002Z,82.03
2017-05-03T07:23:21.329Z,81.62
2017-05-03T07:25:47.642Z,81.90
2017-05-03T07:28:13.976Z,80.79
2017-05-03T07:30:40.313Z,82.15
2017-05-03T07:33:06.648Z,82.44
2017-05-03T07:35:32.997Z,80.60
2017-05-03T07:37:59.335Z,81.22
2017-05-03T07:40:25.663Z,83.49
2017-05-03T07:42:51.996Z,78.94
2017-05-03T07:45:18.440Z,78.20
2017-05-03T07:47:44.762Z,79.71
2017-05-03T07:50:11.101Z,79.76
2017-05-03T07:52:37.404Z,79.50
2017-05-03T07:55:03.757Z,80.69
2017-05-03T07:57:30.093Z,80.72
2017-05-03T07:59:56.418Z,79.67
2017-05-03T08:02:22.773Z,79.44
2017-05-03T08:04:49.218Z,79.26
2017-05-03T08:07:15.582Z,78.26
2017-05-03T08:09:41.955Z,74.52
2017-05-03T08:12:08.289Z,77.05
2017-05-03T08:14:34.692Z,74.20
2017-05-03T08:17:01.077Z,75.59
2017-05-03T08:19:27.426Z,76.77
2017-05-03T08:21:53.798Z,76.63
2017-05-03T08:24:20.147Z,76.50
2017-05-03T08:26:46.469Z,77.86
2017-05-03T08:29:12.835Z,76.77
2017-05-03T08:31:39.257Z,75.26
2017-05-03T08:34:05.583Z,74.32
2017-05-03T08:36:31.927Z,75.54
2017-05-03T08:38:58.304Z,74.40
2017-05-03T08:41:24.673Z,70.66
2017-05-03T08:43:51.029Z,72.58
2017-05-03T08:46:17.405Z,75.94
2017-05-03T08:48:43.793Z,74.86
2017-05-03T08:51:10.233Z,70.95
2017-05-03T08:53:36.559Z,71.26
2017-05-03T08:56:02.936Z,71.63
2017-05-03T08:58:29.283Z,70.52
2017-05-03T09:00:55.657Z,70.29
2017-05-03T09:03:22.088Z,71.18
2017-05-03T09:05:53.925Z,71.80
2017-05-03T09:08:20.407Z,70.32
2017-05-03T09:10:52.320Z,70.56
2017-05-03T09:13:18.829Z,70.39
2017-05-03T09:15:45.409Z,71.05
2017-05-03T09:18:11.902Z,69.11
2017-05-03T09:20:38.237Z,72.10
2017-05-03T09:23:09.970Z,70.72
2017-05-03T09:25:36.421Z,69.25
2017-05-03T09:28:02.769Z,66.98
2017-05-03T09:30:29.218Z,71.04
2017-05-03T09:32:55.714Z,71.53
2017-05-03T09:35:22.662Z,71.39
2017-05-03T09:37:49.058Z,70.26
2017-05-03T09:40:20.662Z,70.32
2017-05-03T09:42:46.998Z,70.88
2017-05-03T09:45:13.900Z,70.50
2017-05-03T09:47:52.405Z,68.58
2017-05-03T09:50:19.277Z,70.07
2017-05-03T09:52:46.542Z,70.54
2017-05-03T09:55:13.057Z,69.91
2017-05-03T09:57:42.574Z,71.32
2017-05-03T10:00:14.964Z,70.98
2017-05-03T10:02:41.541Z,70.11
2017-05-03T10:05:08.175Z,67.54
2017-05-03T10:07:39.943Z,67.99
2017-05-03T10:10:09.831Z,68.92
2017-05-03T10:12:36.316Z,69.70
2017-05-03T10:15:09.784Z,67.54
2017-05-03T10:17:36.466Z,69.97
2017-05-03T10:20:08.326Z,68.93
2017-05-03T10:25:06.886Z,70.38
2017-05-03T10:27:33.327Z,70.51
2017-05-03T10:29:59.775Z,72.22
2017-05-03T10:32:31.561Z,71.90
2017-05-03T10:34:57.898Z,72.79
2017-05-03T10:37:27.190Z,72.29
2017-05-03T10:39:58.949Z,70.93
2017-05-03T10:42:27.084Z,69.26
2017-05-03T10:44:53.486Z,69.75
2017-05-03T10:47:19.941Z,71.18
2017-05-03T10:49:51.528Z,70.61
2017-05-03T10:52:18.307Z,70.11
2017-05-03T10:54:46.402Z,69.15
2017-05-03T10:57:12.803Z,67.38
2017-05-03T10:59:39.508Z,67.21
2017-05-03T11:02:06.220Z,67.18
2017-05-03T11:04:32.710Z,66.08
2017-05-03T11:07:04.293Z,65.04
2017-05-03T11:09:36.237Z,64.78
2017-05-03T11:12:02.639Z,63.84
2017-05-03T11:14:29.363Z,66.20
2017-05-03T11:16:55.706Z,61.68
2017-05-03T11:19:22.372Z,62.44
2017-05-03T11:21:48.695Z,62.79
2017-05-03T11:24:22.437Z,63.50
2017-05-03T11:26:52.873Z,63.89
2017-05-03T11:29:19.529Z,64.78
2017-05-03T11:31:45.852Z,65.62
2017-05-03T11:34:17.882Z,65.18
2017-05-03T11:36:44.229Z,66.70
2017-05-03T11:39:10.998Z,65.80
2017-05-03T11:41:37.325Z,65.02
2017-05-03T11:44:03.772Z,65.23
2017-05-03T11:46:30.154Z,64.98
2017-05-03T11:49:02.724Z,66.07
2017-05-03T11:51:34.368Z,63.95
2017-05-03T11:54:01.092Z,63.75
2017-05-03T11:56:32.672Z,65.72
2017-05-03T11:58:59.108Z,64.64
2017-05-03T12:01:30.591Z,63.73
2017-05-03T12:03:57.795Z,66.54
2017-05-03T12:06:28.164Z,64.13
2017-05-03T12:08:59.006Z,64.16
2017-05-03T12:11:25.905Z,63.56
2017-05-03T12:13:52.550Z,63.47
2017-05-03T12:16:24.137Z,63.78
2017-05-03T12:18:50.790Z,62.88
2017-05-03T12:21:17.370Z,63.50
2017-05-03T12:23:43.758Z,63.58
2017-05-03T12:26:10.205Z,62.55
2017-05-03T12:28:36.616Z,62.29
2017-05-03T12:31:08.108Z,61.08
2017-05-03T12:33:39.936Z,61.99
2017-05-03T12:36:07.260Z,61.01
2017-05-03T12:38:42.023Z,57.24
2017-05-03T12:41:14.046Z,61.27
2017-05-03T12:43:41.510Z,59.62
2017-05-03T12:46:09.299Z,57.56
2017-05-03T12:48:40.968Z,59.74
2017-05-03T12:51:14.730Z,58.54
2017-05-03T12:53:41.973Z,58.47
2017-05-03T12:56:08.350Z,57.34
2017-05-03T12:58:38.082Z,57.70
2017-05-03T13:01:04.765Z,59.71
2017-05-03T13:03:38.533Z,57.22
2017-05-03T13:06:05.110Z,58.00
2017-05-03T13:08:32.305Z,56.85
2017-05-03T13:11:03.975Z,58.00
2017-05-03T13:13:30.711Z,58.19
2017-05-03T13:15:58.295Z,57.82
2017-05-03T13:18:29.740Z,58.41
2017-05-03T13:20:56.132Z,59.04
2017-05-03T13:23:22.446Z,58.33
2017-05-03T13:25:48.963Z,58.19
2017-05-03T13:28:15.313Z,58.36
2017-05-03T13:30:41.760Z,58.66
2017-05-03T13:33:08.509Z,58.72
2017-05-03T13:35:34.883Z,59.49
2017-05-03T13:38:01.225Z,59.98
2017-05-03T13:40:27.564Z,60.87
2017-05-03T13:42:54.094Z,60.02
2017-05-03T13:45:20.428Z,59.57
2017-05-03T13:47:47.024Z,58.75
2017-05-03T13:50:13.336Z,59.92
2017-05-03T13:52:39.676Z,57.72
2017-05-03T13:55:06.012Z,56.82
2017-05-03T13:57:36.888Z,58.75
2017-05-03T14:00:03.269Z,58.39
2017-05-03T14:02:29.585Z,59.55
2017-05-03T14:04:56.013Z,59.02
2017-05-03T14:07:22.396Z,59.66
2017-05-03T14:09:48.714Z,59.08
2017-05-03T14:12:15.039Z,59.27
2017-05-03T14:14:41.359Z,60.78
2017-05-03T14:17:07.883Z,61.03
2017-05-03T14:19:34.193Z,60.37
2017-05-03T14:22:00.508Z,60.45
2017-05-03T14:24:26.839Z,59.69
2017-05-03T14:26:53.321Z,60.86
2017-05-03T14:29:19.651Z,60.31
2017-05-03T14:31:45.965Z,60.63
2017-05-03T14:34:12.319Z,62.09
2017-05-03T14:36:38.813Z,64.56
2017-05-03T14:39:05.167Z,65.07
2017-05-03T14:41:31.517Z,66.37
2017-05-03T14:43:57.834Z,66.96
2017-05-03T14:46:24.133Z,68.10
2017-05-03T14:48:50.455Z,68.36
2017-05-03T14:51:16.790Z,69.96
2017-05-03T14:53:43.120Z,68.14
2017-05-03T14:56:09.451Z,70.48
2017-05-03T14:58:35.803Z,68.66
2017-05-03T15:01:02.122Z,69.30
2017-05-03T15:03:28.452Z,70.19
2017-05-03T15:05:54.787Z,71.90
2017-05-03T15:08:21.095Z,70.68
2017-05-03T15:10:47.441Z,71.22
2017-05-03T15:13:13.758Z,71.41
2017-05-03T15:15:40.116Z,74.30
2017-05-03T15:18:06.467Z,70.33
2017-05-03T15:20:32.801Z,72.07
2017-05-03T15:22:59.293Z,72.32
2017-05-03T15:25:25.614Z,73.65
2017-05-03T15:27:52.016Z,73.94
2017-05-03T15:30:18.347Z,74.57
2017-05-03T15:32:44.850Z,76.95
2017-05-03T15:35:11.163Z,75.31
2017-05-03T15:37:37.573Z,76.49
2017-05-03T15:40:03.935Z,75.91
2017-05-03T15:42:30.271Z,76.71
2017-05-03T15:44:56.624Z,78.07
2017-05-03T15:47:22.984Z,77.30
2017-05-03T15:49:49.294Z,77.86
2017-05-03T15:52:15.636Z,78.77
2017-05-03T15:54:41.992Z,80.61
2017-05-03T15:57:08.339Z,79.67
2017-05-03T15:59:34.878Z,80.11
2017-05-03T16:02:02.968Z,79.16
2017-05-03T16:04:29.369Z,79.92
2017-05-03T16:06:56.253Z,80.75
2017-05-03T16:09:23.055Z,82.26
2017-05-03T16:11:49.546Z,81.29
2017-05-03T16:14:16.331Z,80.92
2017-05-03T16:16:43.256Z,79.40
2017-05-03T16:19:09.811Z,81.85
2017-05-03T16:21:36.423Z,82.61
2017-05-03T16:24:02.761Z,83.19
2017-05-03T16:26:29.098Z,80.85
2017-05-03T16:28:56.438Z,82.97
2017-05-03T16:31:23.426Z,82.93
2017-05-03T16:33:49.889Z,84.33
2017-05-03T16:36:16.449Z,82.63
2017-05-03T16:38:43.001Z,83.49
2017-05-03T16:41:09.774Z,82.69
2017-05-03T16:43:36.119Z,83.42
2017-05-03T16:46:02.608Z,84.15
2017-05-03T16:48:29.571Z,82.98
2017-05-03T16:50:56.080Z,82.27
2017-05-03T16:53:22.590Z,83.25
2017-05-03T16:55:49.471Z,82.98
2017-05-03T16:58:16.243Z,82.31
2017-05-03T17:00:42.872Z,83.43
2017-05-03T17:03:10.003Z,82.62
2017-05-03T17:05:38.245Z,81.26
2017-05-03T17:08:05.266Z,83.02
2017-05-03T17:10:31.845Z,83.55
2017-05-03T17:12:58.341Z,82.63
2017-05-03T17:15:25.438Z,83.64
2017-05-03T17:17:51.801Z,83.19
2017-05-03T17:20:18.637Z,83.33
2017-05-03T17:22:45.949Z,82.42
2017-05-03T17:25:12.337Z,84.19
2017-05-03T17:27:39.308Z,83.69
2017-05-03T17:30:05.768Z,84.71
2017-05-03T17:32:32.330Z,84.15
2017-05-03T17:34:58.991Z,84.48
2017-05-03T17:37:25.391Z,85.18
2017-05-03T17:39:51.732Z,84.13
2017-05-03T17:42:18.123Z,85.41
2017-05-03T17:44:44.906Z,85.00
2017-05-03T17:47:11.700Z,83.28
2017-05-03T17:49:38.244Z,83.79
2017-05-03T17:52:04.740Z,83.30
2017-05-03T17:54:31.092Z,84.60
2017-05-03T17:56:57.482Z,86.52
2017-05-03T17:59:24.096Z,84.67
2017-05-03T18:01:50.670Z,83.56
2017-05-03T18:04:17.242Z,84.79
2017-05-03T18:06:44.013Z,86.76
2017-05-03T18:09:10.457Z,83.89
2017-05-03T18:11:36.947Z,85.12
2017-05-03T18:14:03.349Z,85.21
2017-05-03T18:16:31.008Z,85.12
2017-05-03T18:18:57.415Z,86.12
2017-05-03T18:21:23.757Z,86.28
2017-05-03T18:23:50.161Z,86.15
2017-05-03T18:26:17.482Z,84.34
2017-05-03T18:28:43.818Z,83.72
2017-05-03T18:31:10.175Z,83.73
2017-05-03T18:33:36.766Z,82.90
2017-05-03T18:36:03.137Z,84.09
2017-05-03T18:38:29.448Z,83.06
2017-05-03T18:40:55.819Z,82.84
2017-05-03T18:43:22.462Z,82.72
2017-05-03T18:45:48.797Z,84.67
2017-05-03T18:48:15.134Z,83.14
2017-05-03T18:50:41.617Z,83.30
2017-05-03T18:53:07.975Z,82.95
2017-05-03T18:55:34.356Z,81.89
2017-05-03T18:58:00.736Z,83.76
2017-05-03T19:00:27.276Z,83.81
2017-05-03T19:02:53.617Z,83.55
2017-05-03T19:05:20.221Z,83.85
2017-05-03T19:07:47.270Z,83.32
2017-05-03T19:10:14.283Z,83.22
2017-05-03T19:12:40.672Z,82.91
2017-05-03T19:15:07.020Z,84.51
2017-05-03T19:17:33.355Z,83.20
2017-05-03T19:20:00.574Z,83.53
2017-05-03T19:22:26.971Z,82.01
2017-05-03T19:24:53.325Z,84.15
2017-05-03T19:27:19.745Z,84.83
2017-05-03T19:29:46.361Z,84.04
2017-05-03T19:32:12.826Z,81.35
2017-05-03T19:34:39.227Z,82.07
2017-05-03T19:37:05.629Z,81.12
2017-05-03T19:39:32.243Z,86.59
2017-05-03T19:41:59.818Z,85.05
2017-05-03T19:44:26.706Z,86.08
2017-05-03T19:46:53.305Z,83.14
2017-05-03T19:49:19.651Z,85.85
2017-05-03T19:51:46.379Z,86.30
2017-05-03T19:54:12.734Z,86.77
2017-05-03T19:56:40.033Z,85.53
2017-05-03T19:59:06.594Z,86.85
2017-05-03T20:01:32.994Z,85.70
2017-05-03T20:03:59.440Z,85.27
2017-05-03T20:06:25.766Z,86.44
2017-05-03T20:08:52.104Z,87.50
2017-05-03T20:11:18.565Z,87.54
2017-05-03T20:13:45.750Z,83.81
2017-05-03T20:16:12.263Z,86.74
2017-05-03T20:18:38.710Z,85.23
2017-05-03T20:21:05.964Z,82.65
2017-05-03T20:23:32.356Z,81.81
2017-05-03T20:25:58.736Z,87.67
2017-05-03T20:28:25.835Z,82.74
2017-05-03T20:30:52.236Z,88.55
2017-05-03T20:33:18.653Z,82.98
2017-05-03T20:35:45.080Z,85.95
2017-05-03T20:38:11.461Z,88.38
2017-05-03T20:40:37.846Z,88.40
2017-05-03T20:43:04.198Z,87.09
2017-05-03T20:45:30.710Z,88.50
2017-05-03T20:47:57.043Z,90.14
2017-05-03T20:50:23.400Z,89.37
2017-05-03T20:52:49.733Z,86.19
2017-05-03T20:55:16.064Z,89.25
2017-05-03T20:57:43.391Z,89.17
2017-05-03T21:00:09.764Z,89.79
2017-05-03T21:02:36.378Z,87.16
2017-05-03T21:05:02.870Z,87.24
2017-05-03T21:07:29.319Z,83.28
2017-05-03T21:09:55.739Z,85.53
2017-05-03T21:12:22.097Z,86.57
2017-05-03T21:14:48.445Z,85.53
2017-05-03T21:17:14.866Z,88.05
2017-05-03T21:19:41.491Z,83.07
2017-05-03T21:22:07.849Z,82.96
2017-05-03T21:24:34.180Z,82.34
2017-05-03T21:27:00.573Z,89.19
2017-05-03T21:29:26.898Z,90.94
2017-05-03T21:31:53.979Z,87.01
2017-05-03T21:34:20.314Z,89.97
2017-05-03T21:36:46.910Z,89.49
2017-05-03T21:39:13.232Z,90.97
2017-05-03T21:41:39.596Z,89.16
2017-05-03T21:44:05.942Z,90.34
2017-05-03T21:46:32.245Z,89.88
2017-05-03T21:48:59.374Z,91.17
2017-05-03T21:51:26.757Z,88.02
2017-05-03T21:53:53.268Z,84.22
2017-05-03T21:56:19.659Z,83.22
2017-05-03T21:58:46.012Z,90.67
2017-05-03T22:01:12.364Z,91.90
2017-05-03T22:03:38.770Z,92.08
2017-05-03T22:06:05.678Z,91.33
2017-05-03T22:08:32.652Z,88.15
2017-05-03T22:11:01.017Z,89.01
2017-05-03T22:13:27.614Z,91.84
2017-05-03T22:15:53.908Z,91.16
2017-05-03T22:18:20.850Z,88.44
2017-05-03T22:20:47.358Z,88.53
2017-05-03T22:23:14.652Z,91.10
2017-05-03T22:25:43.102Z,90.65
2017-05-03T22:28:09.729Z,88.23
2017-05-03T22:30:36.065Z,87.46
2017-05-03T22:33:02.437Z,89.57
2017-05-03T22:35:28.772Z,86.08
2017-05-03T22:37:55.377Z,83.57
2017-05-03T22:40:21.772Z,86.67
2017-05-03T22:42:48.115Z,84.36
2017-05-03T22:45:16.512Z,87.44
2017-05-03T22:47:43.752Z,90.70
2017-05-03T22:50:10.275Z,89.04
2017-05-03T22:52:37.820Z,89.00
2017-05-03T22:55:04.258Z,87.94
2017-05-03T22:57:30.894Z,88.90
2017-05-03T22:59:57.244Z,85.60
2017-05-03T23:02:23.584Z,83.63
2017-05-03T23:04:50.210Z,83.14
2017-05-03T23:07:16.581Z,83.03
2017-05-03T23:09:42.937Z,86.11
2017-05-03T23:12:09.285Z,85.04
2017-05-03T23:14:35.745Z,83.48
2017-05-03T23:17:02.154Z,83.05
2017-05-03T23:19:28.485Z,82.92
2017-05-03T23:21:54.864Z,86.32
2017-05-03T23:24:21.330Z,87.38
2017-05-03T23:26:47.713Z,89.58
2017-05-03T23:29:14.088Z,89.93
2017-05-03T23:31:40.701Z,90.14
2017-05-03T23:34:07.073Z,91.11
2017-05-03T23:36:33.434Z,89.44
2017-05-03T23:38:59.814Z,91.39
2017-05-03T23:41:26.288Z,88.35
2017-05-03T23:43:52.654Z,88.62
2017-05-03T23:46:18.999Z,84.84
2017-05-03T23:48:45.345Z,87.97
2017-05-03T23:51:11.766Z,87.72
2017-05-03T23:53:38.103Z,85.03
2017-05-03T23:56:04.438Z,88.59
2017-05-03T23:58:30.791Z,91.11
